sensor_id;sensor_type;location;lat;lon;timestamp;P1;durP1;ratioP1;P2;durP2;ratioP2
17404;SDS011;8820;54.604;18.226;2024-02-28T00:00:06;6.67;;;4.87;;
17404;SDS011;8820;54.604;18.226;2024-02-28T00:02:37;7.57;;;4.50;;
17404;SDS011;8820;54.604;18.226;2024-02-28T00:05:05;6.40;;;4.70;;
17404;SDS011;8820;54.604;18.226;2024-02-28T00:07:34;5.23;;;4.47;;
17404;SDS011;8820;54.604;18.226;2024-02-28T00:10:02;4.70;;;3.93;;
17404;SDS011;8820;54.604;18.226;2024-02-28T00:12:30;6.20;;;5.40;;
17404;SDS011;8820;54.604;18.226;2024-02-28T00:15:00;6.73;;;4.53;;
17404;SDS011;8820;54.604;18.226;2024-02-28T00:17:28;5.50;;;4.90;;
17404;SDS011;8820;54.604;18.226;2024-02-28T00:19:56;7.90;;;5.10;;
17404;SDS011;8820;54.604;18.226;2024-02-28T00:22:24;6.93;;;5.03;;
17404;SDS011;8820;54.604;18.226;2024-02-28T00:24:52;8.93;;;5.87;;
17404;SDS011;8820;54.604;18.226;2024-02-28T00:27:20;6.97;;;5.63;;
17404;SDS011;8820;54.604;18.226;2024-02-28T00:29:48;5.93;;;4.70;;
17404;SDS011;8820;54.604;18.226;2024-02-28T00:32:18;4.77;;;4.27;;
17404;SDS011;8820;54.604;18.226;2024-02-28T00:34:46;6.13;;;5.20;;
17404;SDS011;8820;54.604;18.226;2024-02-28T00:37:14;8.37;;;6.87;;
17404;SDS011;8820;54.604;18.226;2024-02-28T00:39:43;5.67;;;5.17;;
17404;SDS011;8820;54.604;18.226;2024-02-28T00:42:12;4.50;;;3.90;;
17404;SDS011;8820;54.604;18.226;2024-02-28T00:44:40;5.33;;;4.83;;
17404;SDS011;8820;54.604;18.226;2024-02-28T00:47:08;4.63;;;4.07;;
17404;SDS011;8820;54.604;18.226;2024-02-28T00:49:38;4.53;;;4.10;;
17404;SDS011;8820;54.604;18.226;2024-02-28T00:52:06;4.83;;;4.37;;
17404;SDS011;8820;54.604;18.226;2024-02-28T00:54:34;6.67;;;6.07;;
17404;SDS011;8820;54.604;18.226;2024-02-28T00:57:02;6.30;;;5.03;;
17404;SDS011;8820;54.604;18.226;2024-02-28T00:59:31;6.23;;;4.57;;
17404;SDS011;8820;54.604;18.226;2024-02-28T01:01:59;6.67;;;5.90;;
17404;SDS011;8820;54.604;18.226;2024-02-28T01:04:27;8.10;;;7.10;;
17404;SDS011;8820;54.604;18.226;2024-02-28T01:06:56;6.77;;;6.27;;
17404;SDS011;8820;54.604;18.226;2024-02-28T01:09:25;5.60;;;5.00;;
17404;SDS011;8820;54.604;18.226;2024-02-28T01:11:53;4.80;;;4.37;;
17404;SDS011;8820;54.604;18.226;2024-02-28T01:14:21;5.90;;;5.33;;
17404;SDS011;8820;54.604;18.226;2024-02-28T01:16:49;5.17;;;4.23;;
17404;SDS011;8820;54.604;18.226;2024-02-28T01:19:17;6.97;;;6.27;;
17404;SDS011;8820;54.604;18.226;2024-02-28T01:21:45;11.40;;;10.40;;
17404;SDS011;8820;54.604;18.226;2024-02-28T01:24:14;6.10;;;5.50;;
17404;SDS011;8820;54.604;18.226;2024-02-28T01:26:42;6.37;;;5.83;;
17404;SDS011;8820;54.604;18.226;2024-02-28T01:29:10;7.17;;;6.47;;
17404;SDS011;8820;54.604;18.226;2024-02-28T01:31:38;6.37;;;4.97;;
17404;SDS011;8820;54.604;18.226;2024-02-28T01:34:06;5.20;;;4.70;;
17404;SDS011;8820;54.604;18.226;2024-02-28T01:36:35;6.07;;;5.50;;
17404;SDS011;8820;54.604;18.226;2024-02-28T01:39:03;4.93;;;4.43;;
17404;SDS011;8820;54.604;18.226;2024-02-28T01:41:32;7.97;;;7.27;;
17404;SDS011;8820;54.604;18.226;2024-02-28T01:44:01;7.07;;;6.47;;
17404;SDS011;8820;54.604;18.226;2024-02-28T01:46:29;6.20;;;5.57;;
17404;SDS011;8820;54.604;18.226;2024-02-28T01:48:58;4.80;;;4.30;;
17404;SDS011;8820;54.604;18.226;2024-02-28T01:51:26;4.80;;;4.40;;
17404;SDS011;8820;54.604;18.226;2024-02-28T01:53:54;4.73;;;4.33;;
17404;SDS011;8820;54.604;18.226;2024-02-28T01:56:23;5.87;;;5.37;;
17404;SDS011;8820;54.604;18.226;2024-02-28T01:58:53;4.87;;;4.47;;
17404;SDS011;8820;54.604;18.226;2024-02-28T02:01:22;4.33;;;3.93;;
17404;SDS011;8820;54.604;18.226;2024-02-28T02:03:52;5.20;;;4.30;;
17404;SDS011;8820;54.604;18.226;2024-02-28T02:06:20;5.87;;;5.03;;
17404;SDS011;8820;54.604;18.226;2024-02-28T02:08:49;5.17;;;4.60;;
17404;SDS011;8820;54.604;18.226;2024-02-28T02:11:17;6.10;;;4.10;;
17404;SDS011;8820;54.604;18.226;2024-02-28T02:13:49;7.47;;;5.83;;
17404;SDS011;8820;54.604;18.226;2024-02-28T02:16:19;5.50;;;5.00;;
17404;SDS011;8820;54.604;18.226;2024-02-28T02:18:49;5.47;;;4.60;;
17404;SDS011;8820;54.604;18.226;2024-02-28T02:21:18;5.53;;;4.97;;
17404;SDS011;8820;54.604;18.226;2024-02-28T02:23:48;5.60;;;4.47;;
17404;SDS011;8820;54.604;18.226;2024-02-28T02:26:16;5.37;;;4.60;;
17404;SDS011;8820;54.604;18.226;2024-02-28T02:28:45;5.03;;;4.53;;
17404;SDS011;8820;54.604;18.226;2024-02-28T02:31:13;6.07;;;4.93;;
17404;SDS011;8820;54.604;18.226;2024-02-28T02:33:41;6.77;;;5.20;;
17404;SDS011;8820;54.604;18.226;2024-02-28T02:36:09;5.33;;;4.67;;
17404;SDS011;8820;54.604;18.226;2024-02-28T02:38:38;5.10;;;4.60;;
17404;SDS011;8820;54.604;18.226;2024-02-28T02:41:07;5.77;;;5.27;;
17404;SDS011;8820;54.604;18.226;2024-02-28T02:43:35;5.80;;;5.20;;
17404;SDS011;8820;54.604;18.226;2024-02-28T02:46:03;5.80;;;5.30;;
17404;SDS011;8820;54.604;18.226;2024-02-28T02:48:32;5.40;;;4.90;;
17404;SDS011;8820;54.604;18.226;2024-02-28T02:51:00;5.20;;;4.80;;
17404;SDS011;8820;54.604;18.226;2024-02-28T02:53:28;6.77;;;6.17;;
17404;SDS011;8820;54.604;18.226;2024-02-28T02:55:56;4.93;;;4.43;;
17404;SDS011;8820;54.604;18.226;2024-02-28T02:58:25;4.80;;;4.40;;
17404;SDS011;8820;54.604;18.226;2024-02-28T03:00:54;5.93;;;5.43;;
17404;SDS011;8820;54.604;18.226;2024-02-28T03:03:22;5.77;;;5.17;;
17404;SDS011;8820;54.604;18.226;2024-02-28T03:05:50;6.43;;;5.93;;
17404;SDS011;8820;54.604;18.226;2024-02-28T03:08:18;6.70;;;6.10;;
17404;SDS011;8820;54.604;18.226;2024-02-28T03:10:47;5.77;;;5.17;;
17404;SDS011;8820;54.604;18.226;2024-02-28T03:13:15;8.97;;;8.07;;
17404;SDS011;8820;54.604;18.226;2024-02-28T03:15:44;7.33;;;6.67;;
17404;SDS011;8820;54.604;18.226;2024-02-28T03:18:12;5.83;;;5.33;;
17404;SDS011;8820;54.604;18.226;2024-02-28T03:20:40;5.67;;;5.13;;
17404;SDS011;8820;54.604;18.226;2024-02-28T03:23:09;6.00;;;5.40;;
17404;SDS011;8820;54.604;18.226;2024-02-28T03:25:37;6.07;;;5.30;;
17404;SDS011;8820;54.604;18.226;2024-02-28T03:28:05;5.13;;;4.63;;
17404;SDS011;8820;54.604;18.226;2024-02-28T03:30:33;6.43;;;5.50;;
17404;SDS011;8820;54.604;18.226;2024-02-28T03:33:03;6.67;;;6.07;;
17404;SDS011;8820;54.604;18.226;2024-02-28T03:35:31;5.63;;;4.80;;
17404;SDS011;8820;54.604;18.226;2024-02-28T03:37:59;6.00;;;4.93;;
17404;SDS011;8820;54.604;18.226;2024-02-28T03:40:28;5.10;;;4.60;;
17404;SDS011;8820;54.604;18.226;2024-02-28T03:42:56;6.00;;;5.43;;
17404;SDS011;8820;54.604;18.226;2024-02-28T03:45:26;5.80;;;5.20;;
17404;SDS011;8820;54.604;18.226;2024-02-28T03:47:55;6.33;;;4.70;;
17404;SDS011;8820;54.604;18.226;2024-02-28T03:50:24;7.63;;;5.43;;
17404;SDS011;8820;54.604;18.226;2024-02-28T03:52:53;8.10;;;7.30;;
17404;SDS011;8820;54.604;18.226;2024-02-28T03:55:21;7.40;;;6.73;;
17404;SDS011;8820;54.604;18.226;2024-02-28T03:57:49;6.37;;;5.67;;
17404;SDS011;8820;54.604;18.226;2024-02-28T04:00:19;10.67;;;6.23;;
17404;SDS011;8820;54.604;18.226;2024-02-28T04:02:47;9.83;;;6.47;;
17404;SDS011;8820;54.604;18.226;2024-02-28T04:05:15;8.27;;;6.00;;
17404;SDS011;8820;54.604;18.226;2024-02-28T04:07:45;8.23;;;6.13;;
17404;SDS011;8820;54.604;18.226;2024-02-28T04:10:13;7.17;;;6.10;;
17404;SDS011;8820;54.604;18.226;2024-02-28T04:12:42;6.40;;;5.80;;
17404;SDS011;8820;54.604;18.226;2024-02-28T04:15:11;7.57;;;6.40;;
17404;SDS011;8820;54.604;18.226;2024-02-28T04:17:41;6.57;;;5.83;;
17404;SDS011;8820;54.604;18.226;2024-02-28T04:20:10;7.63;;;6.90;;
17404;SDS011;8820;54.604;18.226;2024-02-28T04:22:38;8.20;;;7.40;;
17404;SDS011;8820;54.604;18.226;2024-02-28T04:25:09;6.53;;;6.03;;
17404;SDS011;8820;54.604;18.226;2024-02-28T04:27:37;5.30;;;4.80;;
17404;SDS011;8820;54.604;18.226;2024-02-28T04:30:06;5.60;;;5.00;;
17404;SDS011;8820;54.604;18.226;2024-02-28T04:32:36;4.63;;;4.20;;
17404;SDS011;8820;54.604;18.226;2024-02-28T04:35:05;5.00;;;4.50;;
17404;SDS011;8820;54.604;18.226;2024-02-28T04:37:33;4.97;;;4.47;;
17404;SDS011;8820;54.604;18.226;2024-02-28T04:40:03;5.20;;;4.70;;
17404;SDS011;8820;54.604;18.226;2024-02-28T04:42:34;5.70;;;5.10;;
17404;SDS011;8820;54.604;18.226;2024-02-28T04:45:02;5.17;;;4.60;;
17404;SDS011;8820;54.604;18.226;2024-02-28T04:47:31;5.80;;;4.43;;
17404;SDS011;8820;54.604;18.226;2024-02-28T04:50:02;4.83;;;4.37;;
17404;SDS011;8820;54.604;18.226;2024-02-28T04:52:31;5.23;;;4.70;;
17404;SDS011;8820;54.604;18.226;2024-02-28T04:54:59;5.97;;;4.90;;
17404;SDS011;8820;54.604;18.226;2024-02-28T04:57:27;5.83;;;4.57;;
17404;SDS011;8820;54.604;18.226;2024-02-28T04:59:57;5.60;;;4.93;;
17404;SDS011;8820;54.604;18.226;2024-02-28T05:02:25;6.23;;;5.53;;
17404;SDS011;8820;54.604;18.226;2024-02-28T05:04:53;8.63;;;5.40;;
17404;SDS011;8820;54.604;18.226;2024-02-28T05:07:21;5.73;;;5.20;;
17404;SDS011;8820;54.604;18.226;2024-02-28T05:09:49;5.53;;;5.03;;
17404;SDS011;8820;54.604;18.226;2024-02-28T05:12:18;6.33;;;5.13;;
17404;SDS011;8820;54.604;18.226;2024-02-28T05:14:46;6.67;;;5.30;;
17404;SDS011;8820;54.604;18.226;2024-02-28T05:17:19;10.13;;;6.20;;
17404;SDS011;8820;54.604;18.226;2024-02-28T05:19:47;6.27;;;5.60;;
17404;SDS011;8820;54.604;18.226;2024-02-28T05:22:15;7.03;;;6.10;;
17404;SDS011;8820;54.604;18.226;2024-02-28T05:24:45;9.03;;;7.10;;
17404;SDS011;8820;54.604;18.226;2024-02-28T05:27:13;9.77;;;7.40;;
17404;SDS011;8820;54.604;18.226;2024-02-28T05:29:41;11.83;;;7.90;;
17404;SDS011;8820;54.604;18.226;2024-02-28T05:32:09;9.27;;;7.00;;
17404;SDS011;8820;54.604;18.226;2024-02-28T05:34:39;10.50;;;7.40;;
17404;SDS011;8820;54.604;18.226;2024-02-28T05:37:07;10.10;;;6.77;;
17404;SDS011;8820;54.604;18.226;2024-02-28T05:39:35;8.57;;;6.07;;
17404;SDS011;8820;54.604;18.226;2024-02-28T05:42:03;9.23;;;8.23;;
17404;SDS011;8820;54.604;18.226;2024-02-28T05:44:32;8.17;;;7.33;;
17404;SDS011;8820;54.604;18.226;2024-02-28T05:47:00;9.23;;;7.03;;
17404;SDS011;8820;54.604;18.226;2024-02-28T05:49:28;7.33;;;6.23;;
17404;SDS011;8820;54.604;18.226;2024-02-28T05:51:58;13.70;;;10.03;;
17404;SDS011;8820;54.604;18.226;2024-02-28T05:54:26;13.47;;;9.73;;
17404;SDS011;8820;54.604;18.226;2024-02-28T05:56:56;11.93;;;9.73;;
17404;SDS011;8820;54.604;18.226;2024-02-28T05:59:24;51.17;;;30.37;;
17404;SDS011;8820;54.604;18.226;2024-02-28T06:01:52;15.40;;;12.40;;
17404;SDS011;8820;54.604;18.226;2024-02-28T06:04:21;11.97;;;9.73;;
17404;SDS011;8820;54.604;18.226;2024-02-28T06:06:49;9.90;;;7.53;;
17404;SDS011;8820;54.604;18.226;2024-02-28T06:09:18;10.90;;;8.33;;
17404;SDS011;8820;54.604;18.226;2024-02-28T06:11:46;10.13;;;7.83;;
17404;SDS011;8820;54.604;18.226;2024-02-28T06:14:15;11.90;;;7.27;;
17404;SDS011;8820;54.604;18.226;2024-02-28T06:16:46;10.57;;;8.43;;
17404;SDS011;8820;54.604;18.226;2024-02-28T06:19:14;12.23;;;7.97;;
17404;SDS011;8820;54.604;18.226;2024-02-28T06:21:42;12.93;;;9.30;;
17404;SDS011;8820;54.604;18.226;2024-02-28T06:24:11;13.50;;;8.87;;
17404;SDS011;8820;54.604;18.226;2024-02-28T06:26:41;16.03;;;9.80;;
17404;SDS011;8820;54.604;18.226;2024-02-28T06:29:11;12.17;;;9.53;;
17404;SDS011;8820;54.604;18.226;2024-02-28T06:31:40;14.03;;;8.67;;
17404;SDS011;8820;54.604;18.226;2024-02-28T06:34:08;16.50;;;10.77;;
17404;SDS011;8820;54.604;18.226;2024-02-28T06:36:39;26.20;;;15.00;;
17404;SDS011;8820;54.604;18.226;2024-02-28T06:39:07;27.60;;;16.87;;
17404;SDS011;8820;54.604;18.226;2024-02-28T06:41:36;19.70;;;12.40;;
17404;SDS011;8820;54.604;18.226;2024-02-28T06:44:05;15.67;;;11.00;;
17404;SDS011;8820;54.604;18.226;2024-02-28T06:46:34;12.30;;;9.20;;
17404;SDS011;8820;54.604;18.226;2024-02-28T06:49:02;15.63;;;10.50;;
17404;SDS011;8820;54.604;18.226;2024-02-28T06:51:30;16.20;;;11.07;;
17404;SDS011;8820;54.604;18.226;2024-02-28T06:53:59;20.37;;;11.23;;
17404;SDS011;8820;54.604;18.226;2024-02-28T06:56:27;17.00;;;9.57;;
17404;SDS011;8820;54.604;18.226;2024-02-28T06:58:55;11.07;;;8.33;;
17404;SDS011;8820;54.604;18.226;2024-02-28T07:01:24;13.07;;;9.03;;
17404;SDS011;8820;54.604;18.226;2024-02-28T07:03:52;10.03;;;8.57;;
17404;SDS011;8820;54.604;18.226;2024-02-28T07:06:21;15.10;;;9.30;;
17404;SDS011;8820;54.604;18.226;2024-02-28T07:08:49;12.83;;;8.70;;
17404;SDS011;8820;54.604;18.226;2024-02-28T07:11:17;10.13;;;8.00;;
17404;SDS011;8820;54.604;18.226;2024-02-28T07:13:45;22.70;;;14.97;;
17404;SDS011;8820;54.604;18.226;2024-02-28T07:16:13;7.57;;;6.77;;
17404;SDS011;8820;54.604;18.226;2024-02-28T07:18:43;8.30;;;6.47;;
17404;SDS011;8820;54.604;18.226;2024-02-28T07:21:11;7.77;;;6.30;;
17404;SDS011;8820;54.604;18.226;2024-02-28T07:23:39;9.00;;;7.77;;
17404;SDS011;8820;54.604;18.226;2024-02-28T07:26:08;12.13;;;10.43;;
17404;SDS011;8820;54.604;18.226;2024-02-28T07:28:44;11.87;;;9.47;;
17404;SDS011;8820;54.604;18.226;2024-02-28T07:31:15;10.23;;;8.30;;
17404;SDS011;8820;54.604;18.226;2024-02-28T07:33:45;9.50;;;7.63;;
17404;SDS011;8820;54.604;18.226;2024-02-28T07:36:13;10.33;;;7.87;;
17404;SDS011;8820;54.604;18.226;2024-02-28T07:38:42;15.77;;;9.07;;
17404;SDS011;8820;54.604;18.226;2024-02-28T07:41:10;19.97;;;12.17;;
17404;SDS011;8820;54.604;18.226;2024-02-28T07:43:41;21.17;;;12.10;;
17404;SDS011;8820;54.604;18.226;2024-02-28T07:46:10;23.53;;;12.53;;
17404;SDS011;8820;54.604;18.226;2024-02-28T07:48:38;21.03;;;11.73;;
17404;SDS011;8820;54.604;18.226;2024-02-28T07:51:08;24.60;;;12.93;;
17404;SDS011;8820;54.604;18.226;2024-02-28T07:53:36;17.57;;;10.73;;
17404;SDS011;8820;54.604;18.226;2024-02-28T07:56:04;13.67;;;9.20;;
17404;SDS011;8820;54.604;18.226;2024-02-28T07:58:33;16.23;;;10.43;;
17404;SDS011;8820;54.604;18.226;2024-02-28T08:01:01;14.80;;;10.33;;
17404;SDS011;8820;54.604;18.226;2024-02-28T08:03:30;14.10;;;10.40;;
17404;SDS011;8820;54.604;18.226;2024-02-28T08:06:00;11.63;;;8.60;;
17404;SDS011;8820;54.604;18.226;2024-02-28T08:08:30;14.40;;;9.73;;
17404;SDS011;8820;54.604;18.226;2024-02-28T08:10:58;9.60;;;8.40;;
17404;SDS011;8820;54.604;18.226;2024-02-28T08:13:26;18.23;;;11.70;;
17404;SDS011;8820;54.604;18.226;2024-02-28T08:15:55;13.03;;;9.57;;
17404;SDS011;8820;54.604;18.226;2024-02-28T08:18:24;12.70;;;9.90;;
17404;SDS011;8820;54.604;18.226;2024-02-28T08:20:53;13.50;;;9.60;;
17404;SDS011;8820;54.604;18.226;2024-02-28T08:23:23;13.63;;;8.50;;
17404;SDS011;8820;54.604;18.226;2024-02-28T08:25:54;11.77;;;8.80;;
17404;SDS011;8820;54.604;18.226;2024-02-28T08:28:22;13.53;;;9.23;;
17404;SDS011;8820;54.604;18.226;2024-02-28T08:30:50;43.80;;;24.17;;
17404;SDS011;8820;54.604;18.226;2024-02-28T08:33:18;16.30;;;11.53;;
17404;SDS011;8820;54.604;18.226;2024-02-28T08:35:49;13.47;;;9.10;;
17404;SDS011;8820;54.604;18.226;2024-02-28T08:38:18;13.03;;;9.40;;
17404;SDS011;8820;54.604;18.226;2024-02-28T08:40:46;14.87;;;10.60;;
17404;SDS011;8820;54.604;18.226;2024-02-28T08:43:16;9.50;;;7.73;;
17404;SDS011;8820;54.604;18.226;2024-02-28T08:45:44;12.57;;;8.40;;
17404;SDS011;8820;54.604;18.226;2024-02-28T08:48:12;9.93;;;8.73;;
17404;SDS011;8820;54.604;18.226;2024-02-28T08:50:40;11.93;;;9.13;;
17404;SDS011;8820;54.604;18.226;2024-02-28T08:53:08;13.77;;;10.57;;
17404;SDS011;8820;54.604;18.226;2024-02-28T08:55:37;14.90;;;10.90;;
17404;SDS011;8820;54.604;18.226;2024-02-28T08:58:05;10.43;;;8.30;;
17404;SDS011;8820;54.604;18.226;2024-02-28T09:00:34;10.43;;;8.43;;
17404;SDS011;8820;54.604;18.226;2024-02-28T09:03:03;13.87;;;10.20;;
17404;SDS011;8820;54.604;18.226;2024-02-28T09:05:34;22.43;;;14.77;;
17404;SDS011;8820;54.604;18.226;2024-02-28T09:08:02;11.93;;;9.13;;
17404;SDS011;8820;54.604;18.226;2024-02-28T09:10:30;11.23;;;8.13;;
17404;SDS011;8820;54.604;18.226;2024-02-28T09:13:00;9.40;;;7.63;;
17404;SDS011;8820;54.604;18.226;2024-02-28T09:15:29;7.47;;;6.00;;
17404;SDS011;8820;54.604;18.226;2024-02-28T09:17:59;10.83;;;7.93;;
17404;SDS011;8820;54.604;18.226;2024-02-28T09:20:27;7.83;;;7.03;;
17404;SDS011;8820;54.604;18.226;2024-02-28T09:22:55;13.30;;;7.00;;
17404;SDS011;8820;54.604;18.226;2024-02-28T09:25:23;6.00;;;5.40;;
17404;SDS011;8820;54.604;18.226;2024-02-28T09:27:53;6.53;;;5.73;;
17404;SDS011;8820;54.604;18.226;2024-02-28T09:30:21;6.30;;;5.20;;
17404;SDS011;8820;54.604;18.226;2024-02-28T09:32:52;5.73;;;5.17;;
17404;SDS011;8820;54.604;18.226;2024-02-28T09:35:22;7.17;;;5.47;;
17404;SDS011;8820;54.604;18.226;2024-02-28T09:37:52;5.93;;;5.33;;
17404;SDS011;8820;54.604;18.226;2024-02-28T09:40:20;7.40;;;5.80;;
17404;SDS011;8820;54.604;18.226;2024-02-28T09:42:50;6.23;;;5.63;;
17404;SDS011;8820;54.604;18.226;2024-02-28T09:45:21;7.00;;;5.57;;
17404;SDS011;8820;54.604;18.226;2024-02-28T09:47:51;10.03;;;7.37;;
17404;SDS011;8820;54.604;18.226;2024-02-28T09:50:19;9.27;;;5.90;;
17404;SDS011;8820;54.604;18.226;2024-02-28T09:52:49;6.10;;;5.60;;
17404;SDS011;8820;54.604;18.226;2024-02-28T09:55:23;6.97;;;6.37;;
17404;SDS011;8820;54.604;18.226;2024-02-28T09:57:52;8.00;;;7.30;;
17404;SDS011;8820;54.604;18.226;2024-02-28T10:00:21;8.00;;;6.73;;
17404;SDS011;8820;54.604;18.226;2024-02-28T10:02:50;8.63;;;7.83;;
17404;SDS011;8820;54.604;18.226;2024-02-28T10:05:19;10.50;;;9.50;;
17404;SDS011;8820;54.604;18.226;2024-02-28T10:07:49;7.47;;;6.73;;
17404;SDS011;8820;54.604;18.226;2024-02-28T10:10:17;5.40;;;4.90;;
17404;SDS011;8820;54.604;18.226;2024-02-28T10:12:45;6.57;;;5.37;;
17404;SDS011;8820;54.604;18.226;2024-02-28T10:15:14;7.33;;;6.63;;
17404;SDS011;8820;54.604;18.226;2024-02-28T10:17:45;6.70;;;5.83;;
17404;SDS011;8820;54.604;18.226;2024-02-28T10:20:13;6.07;;;5.47;;
17404;SDS011;8820;54.604;18.226;2024-02-28T10:22:41;9.83;;;6.40;;
17404;SDS011;8820;54.604;18.226;2024-02-28T10:25:11;11.77;;;9.53;;
17404;SDS011;8820;54.604;18.226;2024-02-28T10:27:39;8.53;;;7.47;;
17404;SDS011;8820;54.604;18.226;2024-02-28T10:30:08;9.40;;;7.70;;
17404;SDS011;8820;54.604;18.226;2024-02-28T10:32:37;7.60;;;6.87;;
17404;SDS011;8820;54.604;18.226;2024-02-28T10:35:18;5.47;;;4.90;;
17404;SDS011;8820;54.604;18.226;2024-02-28T10:37:51;10.07;;;6.37;;
17404;SDS011;8820;54.604;18.226;2024-02-28T10:40:21;7.13;;;5.93;;
17404;SDS011;8820;54.604;18.226;2024-02-28T10:42:50;7.87;;;6.03;;
17404;SDS011;8820;54.604;18.226;2024-02-28T10:45:18;7.83;;;6.67;;
17404;SDS011;8820;54.604;18.226;2024-02-28T10:47:59;9.53;;;5.90;;
17404;SDS011;8820;54.604;18.226;2024-02-28T10:50:28;9.23;;;8.07;;
17404;SDS011;8820;54.604;18.226;2024-02-28T10:52:57;9.83;;;7.40;;
17404;SDS011;8820;54.604;18.226;2024-02-28T10:55:32;9.17;;;7.37;;
17404;SDS011;8820;54.604;18.226;2024-02-28T10:58:02;8.40;;;7.20;;
17404;SDS011;8820;54.604;18.226;2024-02-28T11:00:33;21.20;;;14.50;;
17404;SDS011;8820;54.604;18.226;2024-02-28T11:03:03;13.73;;;8.93;;
17404;SDS011;8820;54.604;18.226;2024-02-28T11:05:35;10.13;;;8.03;;
17404;SDS011;8820;54.604;18.226;2024-02-28T11:08:05;9.70;;;8.27;;
17404;SDS011;8820;54.604;18.226;2024-02-28T11:10:39;9.40;;;7.97;;
17404;SDS011;8820;54.604;18.226;2024-02-28T11:13:08;7.93;;;6.60;;
17404;SDS011;8820;54.604;18.226;2024-02-28T11:15:37;7.60;;;6.40;;
17404;SDS011;8820;54.604;18.226;2024-02-28T11:18:09;10.23;;;8.90;;
17404;SDS011;8820;54.604;18.226;2024-02-28T11:20:39;8.93;;;7.50;;
17404;SDS011;8820;54.604;18.226;2024-02-28T11:23:07;10.27;;;8.30;;
17404;SDS011;8820;54.604;18.226;2024-02-28T11:25:38;8.70;;;7.80;;
17404;SDS011;8820;54.604;18.226;2024-02-28T11:28:06;8.70;;;7.80;;
17404;SDS011;8820;54.604;18.226;2024-02-28T11:30:35;10.37;;;8.27;;
17404;SDS011;8820;54.604;18.226;2024-02-28T11:33:03;8.57;;;7.20;;
17404;SDS011;8820;54.604;18.226;2024-02-28T11:35:34;7.30;;;6.00;;
17404;SDS011;8820;54.604;18.226;2024-02-28T11:38:03;10.47;;;7.83;;
17404;SDS011;8820;54.604;18.226;2024-02-28T11:40:37;8.07;;;5.90;;
17404;SDS011;8820;54.604;18.226;2024-02-28T11:43:05;7.80;;;6.47;;
17404;SDS011;8820;54.604;18.226;2024-02-28T11:45:38;13.80;;;9.63;;
17404;SDS011;8820;54.604;18.226;2024-02-28T11:48:07;12.77;;;10.83;;
17404;SDS011;8820;54.604;18.226;2024-02-28T11:50:37;9.73;;;8.10;;
17404;SDS011;8820;54.604;18.226;2024-02-28T11:53:05;9.47;;;7.67;;
17404;SDS011;8820;54.604;18.226;2024-02-28T11:55:34;8.27;;;7.17;;
17404;SDS011;8820;54.604;18.226;2024-02-28T11:58:08;9.60;;;7.50;;
17404;SDS011;8820;54.604;18.226;2024-02-28T12:00:47;8.63;;;7.37;;
17404;SDS011;8820;54.604;18.226;2024-02-28T12:03:21;8.53;;;7.60;;
17404;SDS011;8820;54.604;18.226;2024-02-28T12:05:49;10.10;;;8.63;;
17404;SDS011;8820;54.604;18.226;2024-02-28T12:08:19;9.90;;;7.83;;
17404;SDS011;8820;54.604;18.226;2024-02-28T12:10:47;9.43;;;7.60;;
17404;SDS011;8820;54.604;18.226;2024-02-28T12:13:20;8.80;;;6.67;;
